createdAt,value
2023-04-19T00:00:46.304Z,31.58
2023-04-19T00:03:18.875Z,25.40
2023-04-19T00:05:54.004Z,31.00
2023-04-19T00:08:26.710Z,28.85
2023-04-19T00:10:58.763Z,30.07
2023-04-19T00:13:30.817Z,25.58
2023-04-19T00:16:02.977Z,28.33
2023-04-19T00:18:35.748Z,31.15
2023-04-19T00:21:07.941Z,29.40
2023-04-19T00:23:40.088Z,29.10
2023-04-19T00:26:15.748Z,26.42
2023-04-19T00:28:52.733Z,26.50
2023-04-19T00:31:25.325Z,25.25
2023-04-19T00:33:57.977Z,27.90
2023-04-19T00:36:32.264Z,27.50
2023-04-19T00:39:04.523Z,25.95
2023-04-19T00:41:36.571Z,29.23
2023-04-19T00:44:09.559Z,26.10
2023-04-19T00:46:42.755Z,29.77
2023-04-19T00:49:15.428Z,29.60
2023-04-19T00:51:48.878Z,30.98
2023-04-19T00:54:21.495Z,31.52
2023-04-19T00:56:55.938Z,29.52
2023-04-19T00:59:31.464Z,29.35
2023-04-19T01:02:03.623Z,29.48
2023-04-19T01:04:36.312Z,30.58
2023-04-19T01:07:09.275Z,30.33
2023-04-19T01:09:43.937Z,28.17
2023-04-19T01:12:16.043Z,29.13
2023-04-19T01:14:48.455Z,29.63
2023-04-19T01:17:23.377Z,28.42
2023-04-19T01:20:04.129Z,31.00
2023-04-19T01:22:37.845Z,28.52
2023-04-19T01:25:11.670Z,26.73
2023-04-19T01:27:44.631Z,28.13
2023-04-19T01:30:16.957Z,28.83
2023-04-19T01:32:49.552Z,27.85
2023-04-19T01:35:21.753Z,31.15
2023-04-19T01:37:56.600Z,28.38
2023-04-19T01:40:28.821Z,30.30
2023-04-19T01:43:00.926Z,32.25
2023-04-19T01:45:34.240Z,29.70
2023-04-19T01:48:06.718Z,33.15
2023-04-19T01:50:39.927Z,31.50
2023-04-19T01:53:12.253Z,31.17
2023-04-19T01:55:44.365Z,32.90
2023-04-19T01:58:17.331Z,33.65
2023-04-19T02:00:50.529Z,40.47
2023-04-19T02:03:23.386Z,36.90
2023-04-19T02:05:55.608Z,34.13
2023-04-19T02:08:27.910Z,36.92
2023-04-19T02:10:59.956Z,41.20
2023-04-19T02:13:33.153Z,41.70
2023-04-19T02:16:06.273Z,41.27
2023-04-19T02:18:41.773Z,41.47
2023-04-19T02:21:14.248Z,41.67
2023-04-19T02:23:46.582Z,45.83
2023-04-19T02:26:21.011Z,50.53
2023-04-19T02:28:53.588Z,46.40
2023-04-19T02:31:25.982Z,48.13
2023-04-19T02:33:58.196Z,48.78
2023-04-19T02:36:30.961Z,47.90
2023-04-19T02:39:03.167Z,41.63
2023-04-19T02:41:36.139Z,49.65
2023-04-19T02:44:08.718Z,41.65
2023-04-19T02:46:40.880Z,50.60
2023-04-19T02:49:13.041Z,51.58
2023-04-19T02:51:45.674Z,45.13
2023-04-19T02:54:18.893Z,49.13
2023-04-19T02:56:52.406Z,44.25
2023-04-19T02:59:24.520Z,48.78
2023-04-19T03:01:57.397Z,62.43
2023-04-19T03:04:31.605Z,44.97
2023-04-19T03:09:36.721Z,57.85
2023-04-19T03:12:09.765Z,52.70
2023-04-19T03:14:42.134Z,52.17
2023-04-19T03:17:14.736Z,58.40
2023-04-19T03:19:47.849Z,61.10
2023-04-19T03:24:53.064Z,55.70
2023-04-19T03:27:28.037Z,52.63
2023-04-19T03:30:05.583Z,53.42
2023-04-19T03:32:38.623Z,59.40
2023-04-19T03:35:12.496Z,59.92
2023-04-19T03:37:44.832Z,67.32
2023-04-19T03:40:16.987Z,71.38
2023-04-19T03:42:49.155Z,74.38
2023-04-19T03:45:34.245Z,75.10
2023-04-19T03:48:06.692Z,78.00
2023-04-19T03:53:14.055Z,83.13
2023-04-19T03:55:46.179Z,76.55
2023-04-19T03:58:18.723Z,77.82
2023-04-19T04:01:03.799Z,88.00
2023-04-19T04:03:36.757Z,71.10
2023-04-19T04:06:09.736Z,76.75
2023-04-19T04:08:42.358Z,70.60
2023-04-19T04:11:14.635Z,85.05
2023-04-19T04:13:49.708Z,80.30
2023-04-19T04:16:26.113Z,77.78
2023-04-19T04:18:59.695Z,80.78
2023-04-19T04:21:33.686Z,72.53
2023-04-19T04:24:08.173Z,80.45
2023-04-19T04:27:06.027Z,71.18
2023-04-19T04:29:41.482Z,81.53
2023-04-19T04:34:52.058Z,75.60
2023-04-19T04:37:36.084Z,88.03
2023-04-19T04:40:10.205Z,86.40
2023-04-19T04:42:43.286Z,75.23
2023-04-19T04:45:18.679Z,77.07
2023-04-19T04:47:51.685Z,68.55
2023-04-19T04:50:24.212Z,75.97
2023-04-19T04:52:56.432Z,81.10
2023-04-19T04:55:35.490Z,68.57
2023-04-19T04:58:08.147Z,67.75
2023-04-19T05:01:09.676Z,70.82
2023-04-19T05:03:45.900Z,79.28
2023-04-19T05:06:22.938Z,86.07
2023-04-19T05:08:55.277Z,79.20
2023-04-19T05:11:36.436Z,70.10
2023-04-19T05:14:08.925Z,80.93
2023-04-19T05:16:41.122Z,105.07
2023-04-19T05:19:13.417Z,81.90
2023-04-19T05:21:51.605Z,84.25
2023-04-19T05:24:24.204Z,84.18
2023-04-19T05:26:57.132Z,71.07
2023-04-19T05:29:30.826Z,86.18
2023-04-19T05:32:03.017Z,66.80
2023-04-19T05:34:39.080Z,79.22
2023-04-19T05:37:11.495Z,85.32
2023-04-19T05:39:44.397Z,110.72
2023-04-19T05:42:17.012Z,92.00
2023-04-19T05:44:49.409Z,90.47
2023-04-19T05:47:22.079Z,83.23
2023-04-19T05:50:20.658Z,93.25
2023-04-19T05:53:11.994Z,79.20
2023-04-19T05:55:45.757Z,83.15
2023-04-19T05:58:18.474Z,86.07
2023-04-19T06:00:51.872Z,74.90
2023-04-19T06:03:28.733Z,87.30
2023-04-19T06:06:04.827Z,84.70
2023-04-19T06:08:37.697Z,81.20
2023-04-19T06:11:20.272Z,83.60
2023-04-19T06:13:56.928Z,89.20
2023-04-19T06:16:29.360Z,78.13
2023-04-19T06:19:01.829Z,81.85
2023-04-19T06:21:35.135Z,81.90
2023-04-19T06:24:08.508Z,86.97
2023-04-19T06:26:40.794Z,80.10
2023-04-19T06:29:13.210Z,76.95
2023-04-19T06:31:46.560Z,77.07
2023-04-19T06:34:19.535Z,72.20
2023-04-19T06:36:52.065Z,77.85
2023-04-19T06:39:24.182Z,84.18
2023-04-19T06:41:56.948Z,82.57
2023-04-19T06:44:30.174Z,84.68
2023-04-19T06:47:02.329Z,76.10
2023-04-19T06:49:35.130Z,79.80
2023-04-19T06:52:07.303Z,82.13
2023-04-19T06:54:39.414Z,76.82
2023-04-19T06:57:11.553Z,79.68
2023-04-19T06:59:44.559Z,76.68
2023-04-19T07:02:17.323Z,73.32
2023-04-19T07:04:49.739Z,74.35
2023-04-19T07:07:22.194Z,69.75
2023-04-19T07:09:54.317Z,77.57
2023-04-19T07:12:26.661Z,71.30
2023-04-19T07:14:58.748Z,70.75
2023-04-19T07:17:30.936Z,72.85
2023-04-19T07:20:05.277Z,79.25
2023-04-19T07:22:37.606Z,76.55
2023-04-19T07:25:10.168Z,66.82
2023-04-19T07:27:42.780Z,66.03
2023-04-19T07:30:15.107Z,72.53
2023-04-19T07:32:48.217Z,69.78
2023-04-19T07:35:20.892Z,72.53
2023-04-19T07:37:53.653Z,75.38
2023-04-19T07:40:26.256Z,75.63
2023-04-19T07:42:58.505Z,66.80
2023-04-19T07:45:31.557Z,70.68
2023-04-19T07:48:03.876Z,71.72
2023-04-19T07:50:37.329Z,74.30
2023-04-19T07:53:09.917Z,73.43
2023-04-19T07:55:42.173Z,76.30
2023-04-19T07:58:14.703Z,79.00
2023-04-19T08:00:46.875Z,81.05
2023-04-19T08:03:19.250Z,79.93
2023-04-19T08:05:51.719Z,71.90
2023-04-19T08:08:25.313Z,71.03
2023-04-19T08:10:58.005Z,64.50
2023-04-19T08:13:31.354Z,64.95
2023-04-19T08:16:32.166Z,65.13
2023-04-19T08:18:56.182Z,56.97
2023-04-19T08:21:34.670Z,56.90
2023-04-19T08:24:12.499Z,63.38
2023-04-19T08:26:44.660Z,58.17
2023-04-19T08:29:17.094Z,59.63
2023-04-19T08:31:49.642Z,58.60
2023-04-19T08:34:24.626Z,66.50
2023-04-19T08:37:03.949Z,56.47
2023-04-19T08:39:37.032Z,57.78
2023-04-19T08:42:24.134Z,49.67
2023-04-19T08:50:32.354Z,49.42
2023-04-19T08:53:23.799Z,50.92
2023-04-19T08:56:10.670Z,53.45
2023-04-19T09:01:34.556Z,49.58
2023-04-19T09:04:26.470Z,54.78
2023-04-19T09:07:00.718Z,52.83
2023-04-19T09:09:39.057Z,51.67
2023-04-19T09:12:18.961Z,45.80
2023-04-19T09:15:01.117Z,51.78
2023-04-19T09:17:38.888Z,44.92
2023-04-19T09:20:11.464Z,53.97
2023-04-19T09:22:43.616Z,51.55
2023-04-19T09:25:41.863Z,50.33
2023-04-19T09:28:18.140Z,49.78
2023-04-19T09:33:39.681Z,52.13
2023-04-19T09:36:14.694Z,45.67
2023-04-19T09:38:49.124Z,49.30
2023-04-19T09:41:21.895Z,53.08
2023-04-19T09:46:37.379Z,54.28
2023-04-19T09:49:36.813Z,49.63
2023-04-19T09:52:15.425Z,50.28
2023-04-19T09:54:49.083Z,61.08
2023-04-19T09:59:53.511Z,48.53
2023-04-19T10:02:30.539Z,50.40
2023-04-19T10:05:19.938Z,44.00
2023-04-19T10:07:59.568Z,52.10
2023-04-19T10:10:41.667Z,49.75
2023-04-19T10:13:26.474Z,52.17
2023-04-19T10:16:11.641Z,49.83
2023-04-19T10:18:50.652Z,46.40
2023-04-19T10:21:23.933Z,44.42
2023-04-19T10:23:57.412Z,38.88
2023-04-19T10:26:29.833Z,54.10
2023-04-19T10:29:02.262Z,45.17
2023-04-19T10:31:34.533Z,44.67
2023-04-19T10:34:06.968Z,42.90
2023-04-19T10:36:39.202Z,38.65
2023-04-19T10:39:41.566Z,42.03
2023-04-19T10:42:13.713Z,43.15
2023-04-19T10:45:25.031Z,44.90
2023-04-19T10:47:57.236Z,46.13
2023-04-19T10:50:29.391Z,39.97
2023-04-19T10:53:40.089Z,42.97
2023-04-19T10:56:12.522Z,42.67
2023-04-19T10:59:05.652Z,39.95
2023-04-19T11:01:40.386Z,39.33
2023-04-19T11:04:14.652Z,44.95
2023-04-19T11:06:52.933Z,39.80
2023-04-19T11:09:25.525Z,38.70
2023-04-19T11:12:03.987Z,45.17
2023-04-19T11:14:42.114Z,41.05
2023-04-19T11:17:27.317Z,43.40
2023-04-19T11:20:08.685Z,47.53
2023-04-19T11:22:43.069Z,49.92
2023-04-19T11:25:16.665Z,45.63
2023-04-19T11:30:28.900Z,57.75
2023-04-19T11:33:01.803Z,49.53
2023-04-19T11:35:34.176Z,43.60
2023-04-19T11:38:06.698Z,49.35
2023-04-19T11:40:38.939Z,46.50
2023-04-19T11:43:11.649Z,48.93
2023-04-19T11:45:44.012Z,49.67
2023-04-19T11:48:16.556Z,64.00
2023-04-19T11:50:50.778Z,48.08
2023-04-19T11:53:25.739Z,50.58
2023-04-19T11:56:08.520Z,46.38
2023-04-19T11:58:51.514Z,52.53
2023-04-19T12:01:25.601Z,57.30
2023-04-19T12:03:57.958Z,55.03
2023-04-19T12:06:34.278Z,56.00
2023-04-19T12:09:09.461Z,61.15
2023-04-19T12:11:50.400Z,67.20
2023-04-19T12:14:24.022Z,58.88
2023-04-19T12:17:15.968Z,67.97
2023-04-19T12:19:48.752Z,62.75
2023-04-19T12:22:21.144Z,56.50
2023-04-19T12:24:54.697Z,64.40
2023-04-19T12:29:58.942Z,66.60
2023-04-19T12:32:31.399Z,60.28
2023-04-19T12:35:03.606Z,60.25
2023-04-19T12:37:36.718Z,61.15
2023-04-19T12:40:09.773Z,47.28
2023-04-19T12:42:41.874Z,39.80
2023-04-19T12:45:14.965Z,29.77
2023-04-19T12:47:48.598Z,26.33
2023-04-19T12:52:53.972Z,20.90
2023-04-19T12:55:26.743Z,18.50
2023-04-19T12:57:58.867Z,21.38
2023-04-19T13:00:31.797Z,19.52
2023-04-19T13:03:04.433Z,23.73
2023-04-19T13:05:36.958Z,22.23
2023-04-19T13:08:09.058Z,26.05
2023-04-19T13:10:41.724Z,21.17
2023-04-19T13:13:13.999Z,22.87
2023-04-19T13:15:46.275Z,23.52
2023-04-19T13:18:19.648Z,25.27
2023-04-19T13:20:54.229Z,27.85
2023-04-19T13:23:26.669Z,26.83
2023-04-19T13:25:58.876Z,29.80
2023-04-19T13:28:31.308Z,29.27
2023-04-19T13:31:05.273Z,23.25
2023-04-19T13:33:37.518Z,28.98
2023-04-19T13:36:09.757Z,35.47
2023-04-19T13:38:42.070Z,26.35
2023-04-19T13:41:14.398Z,27.52
2023-04-19T13:43:47.108Z,27.45
2023-04-19T13:46:19.477Z,29.23
2023-04-19T13:48:51.654Z,23.00
2023-04-19T13:51:24.127Z,26.50
2023-04-19T13:53:57.219Z,23.02
2023-04-19T13:56:30.340Z,20.58
2023-04-19T13:59:02.494Z,21.75
2023-04-19T14:01:35.877Z,21.88
2023-04-19T14:04:08.692Z,28.02
2023-04-19T14:06:41.158Z,22.33
2023-04-19T14:09:13.407Z,25.50
2023-04-19T14:11:45.763Z,19.23
2023-04-19T14:14:18.322Z,17.48
2023-04-19T14:16:53.928Z,21.30
2023-04-19T14:19:26.558Z,23.67
2023-04-19T14:21:58.883Z,15.02
2023-04-19T14:24:31.068Z,14.98
2023-04-19T14:27:11.016Z,10.45
2023-04-19T14:29:44.102Z,13.13
2023-04-19T14:32:26.083Z,12.52
2023-04-19T14:34:59.963Z,12.57
2023-04-19T14:37:32.988Z,11.38
2023-04-19T14:40:06.405Z,13.23
2023-04-19T14:42:38.643Z,13.63
2023-04-19T14:45:11.411Z,15.80
2023-04-19T14:47:43.606Z,17.97
2023-04-19T14:50:15.729Z,16.55
2023-04-19T14:52:48.065Z,17.05
2023-04-19T14:55:20.321Z,14.68
2023-04-19T14:57:52.960Z,19.17
2023-04-19T15:00:25.247Z,20.85
2023-04-19T15:02:58.048Z,21.10
2023-04-19T15:05:30.392Z,20.20
2023-04-19T15:08:02.826Z,15.63
2023-04-19T15:10:37.612Z,15.80
2023-04-19T15:13:10.419Z,16.85
2023-04-19T15:15:42.794Z,18.60
2023-04-19T15:18:15.413Z,14.27
2023-04-19T15:20:47.546Z,15.73
2023-04-19T15:23:24.447Z,17.42
2023-04-19T15:25:56.578Z,21.48
2023-04-19T15:28:28.852Z,18.05
2023-04-19T15:31:04.236Z,15.98
2023-04-19T15:33:37.836Z,15.15
2023-04-19T15:36:10.278Z,12.75
2023-04-19T15:38:43.955Z,12.68
2023-04-19T15:41:17.537Z,13.25
2023-04-19T15:43:49.689Z,15.02
2023-04-19T15:46:21.961Z,16.27
2023-04-19T15:48:54.246Z,16.25
2023-04-19T15:51:27.637Z,16.88
2023-04-19T15:53:59.896Z,15.88
2023-04-19T15:56:32.622Z,15.20
2023-04-19T15:59:04.718Z,17.38
2023-04-19T16:01:36.919Z,15.38
2023-04-19T16:04:09.322Z,14.32
2023-04-19T16:06:42.207Z,15.68
2023-04-19T16:09:15.009Z,17.02
2023-04-19T16:11:47.971Z,14.13
2023-04-19T16:14:20.311Z,14.93
2023-04-19T16:16:53.963Z,13.77
2023-04-19T16:19:26.158Z,13.85
2023-04-19T16:22:02.237Z,13.50
2023-04-19T16:24:34.715Z,12.55
2023-04-19T16:27:07.493Z,13.13
2023-04-19T16:29:39.833Z,13.00
2023-04-19T16:32:23.132Z,14.18
2023-04-19T16:35:02.075Z,15.85
2023-04-19T16:37:56.691Z,12.70
2023-04-19T16:41:15.855Z,14.70
2023-04-19T16:47:51.950Z,15.27
2023-04-19T16:50:24.104Z,15.00
2023-04-19T16:52:56.273Z,11.73
2023-04-19T16:55:29.015Z,13.20
2023-04-19T16:58:01.376Z,11.07
2023-04-19T17:00:33.575Z,11.90
2023-04-19T17:03:06.160Z,11.90
2023-04-19T17:05:38.676Z,11.27
2023-04-19T17:08:12.255Z,12.07
2023-04-19T17:13:16.451Z,10.88
2023-04-19T17:15:49.600Z,11.25
2023-04-19T17:18:22.440Z,12.82
2023-04-19T17:20:54.742Z,11.97
2023-04-19T17:23:27.176Z,14.25
2023-04-19T17:25:59.409Z,13.95
2023-04-19T17:28:31.496Z,14.10
2023-04-19T17:31:04.330Z,14.90
2023-04-19T17:33:38.846Z,18.63
2023-04-19T17:36:11.021Z,16.63
2023-04-19T17:38:43.408Z,12.70
2023-04-19T17:41:16.942Z,16.52
2023-04-19T17:43:49.141Z,14.20
2023-04-19T17:46:22.509Z,10.13
2023-04-19T17:48:55.710Z,11.95
2023-04-19T17:51:27.859Z,14.85
2023-04-19T17:54:00.135Z,20.98
2023-04-19T17:56:32.709Z,15.48
2023-04-19T17:59:04.897Z,18.50
2023-04-19T18:01:38.264Z,17.95
2023-04-19T18:04:14.479Z,15.23
2023-04-19T18:06:47.100Z,13.80
2023-04-19T18:09:20.385Z,11.02
2023-04-19T18:11:53.180Z,14.77
2023-04-19T18:14:25.420Z,15.88
2023-04-19T18:16:57.773Z,18.88
2023-04-19T18:19:29.945Z,14.98
2023-04-19T18:22:02.030Z,14.05
2023-04-19T18:24:34.729Z,16.52
2023-04-19T18:27:07.817Z,14.23
2023-04-19T18:29:40.023Z,15.23
2023-04-19T18:32:12.356Z,19.55
2023-04-19T18:34:44.867Z,15.07
2023-04-19T18:37:17.461Z,16.92
2023-04-19T18:39:49.682Z,13.82
2023-04-19T18:42:22.018Z,16.33
2023-04-19T18:44:54.767Z,15.05
2023-04-19T18:47:27.759Z,17.13
2023-04-19T18:50:05.327Z,17.37
2023-04-19T18:52:38.434Z,15.88
2023-04-19T18:55:12.248Z,19.80
2023-04-19T18:57:44.603Z,21.05
2023-04-19T19:00:17.445Z,15.52
2023-04-19T19:02:49.699Z,16.10
2023-04-19T19:05:22.445Z,14.93
2023-04-19T19:07:54.830Z,15.57
2023-04-19T19:13:06.442Z,16.95
2023-04-19T19:15:40.832Z,19.05
2023-04-19T19:18:13.685Z,17.15
2023-04-19T19:20:48.053Z,16.48
2023-04-19T19:23:32.184Z,16.33
2023-04-19T19:26:07.788Z,17.70
2023-04-19T19:28:40.383Z,21.48
2023-04-19T19:31:12.534Z,22.02
2023-04-19T19:33:51.918Z,16.38
2023-04-19T19:36:36.368Z,18.17
2023-04-19T19:39:08.501Z,15.63
2023-04-19T19:42:04.654Z,14.27
2023-04-19T19:44:34.339Z,16.83
2023-04-19T19:47:10.146Z,18.08
2023-04-19T19:52:18.540Z,14.52
2023-04-19T19:54:52.581Z,13.20
2023-04-19T20:00:17.975Z,12.88
2023-04-19T20:02:55.924Z,11.25
2023-04-19T20:05:29.009Z,14.02
2023-04-19T20:08:14.425Z,11.25
2023-04-19T20:10:46.747Z,10.50
2023-04-19T20:13:18.864Z,10.18
2023-04-19T20:15:52.767Z,13.98
2023-04-19T20:18:25.924Z,12.57
2023-04-19T20:20:58.846Z,12.88
2023-04-19T20:23:30.929Z,11.13
2023-04-19T20:26:03.024Z,17.35
2023-04-19T20:28:35.445Z,12.02
2023-04-19T20:31:07.823Z,15.15
2023-04-19T20:33:40.064Z,10.60
2023-04-19T20:36:14.077Z,12.38
2023-04-19T20:38:46.961Z,13.00
2023-04-19T20:41:19.534Z,19.00
2023-04-19T20:43:52.283Z,12.85
2023-04-19T20:46:24.849Z,13.00
2023-04-19T20:48:57.061Z,16.98
2023-04-19T20:51:29.252Z,21.33
2023-04-19T20:54:01.778Z,17.75
2023-04-19T20:56:33.875Z,16.92
2023-04-19T20:59:06.390Z,23.38
2023-04-19T21:01:39.380Z,20.85
2023-04-19T21:04:11.632Z,18.67
2023-04-19T21:06:43.980Z,24.25
2023-04-19T21:09:16.304Z,19.58
2023-04-19T21:11:48.850Z,24.75
2023-04-19T21:14:21.030Z,19.63
2023-04-19T21:16:53.162Z,17.92
2023-04-19T21:19:25.951Z,18.40
2023-04-19T21:21:59.334Z,25.70
2023-04-19T21:24:31.589Z,20.45
2023-04-19T21:27:03.830Z,20.02
2023-04-19T21:29:35.881Z,22.17
2023-04-19T21:32:07.956Z,32.03
2023-04-19T21:34:40.490Z,26.98
2023-04-19T21:37:12.565Z,17.35
2023-04-19T21:39:44.688Z,21.85
2023-04-19T21:42:16.803Z,22.98
2023-04-19T21:44:48.942Z,23.25
2023-04-19T21:47:21.503Z,28.38
2023-04-19T21:49:54.042Z,21.20
2023-04-19T21:52:26.123Z,23.83
2023-04-19T21:54:58.325Z,22.77
2023-04-19T21:57:31.168Z,22.00
2023-04-19T22:00:04.804Z,23.52
2023-04-19T22:02:39.119Z,22.55
2023-04-19T22:05:13.282Z,21.05
2023-04-19T22:07:45.600Z,26.92
2023-04-19T22:10:17.825Z,24.05
2023-04-19T22:12:58.040Z,39.83
2023-04-19T22:15:32.033Z,29.35
2023-04-19T22:18:05.430Z,23.83
2023-04-19T22:20:38.569Z,19.52
2023-04-19T22:23:10.906Z,18.85
2023-04-19T22:25:43.062Z,23.50
2023-04-19T22:28:15.714Z,21.67
2023-04-19T22:30:47.854Z,22.43
2023-04-19T22:33:20.247Z,22.88
2023-04-19T22:35:52.318Z,23.00
2023-04-19T22:38:24.510Z,22.73
2023-04-19T22:40:56.551Z,25.90
2023-04-19T22:43:28.861Z,26.60
2023-04-19T22:46:01.534Z,23.65
2023-04-19T22:48:33.828Z,20.67
2023-04-19T22:51:06.657Z,21.80
2023-04-19T22:53:38.821Z,26.60
2023-04-19T22:56:10.984Z,31.38
2023-04-19T22:58:43.129Z,27.25
2023-04-19T23:01:16.573Z,23.08
2023-04-19T23:03:48.779Z,31.52
2023-04-19T23:06:20.921Z,36.05
2023-04-19T23:08:53.038Z,27.60
2023-04-19T23:11:26.238Z,23.80
2023-04-19T23:13:58.908Z,22.02
2023-04-19T23:16:33.510Z,25.00
2023-04-19T23:19:07.729Z,27.48
2023-04-19T23:21:39.824Z,22.23
2023-04-19T23:24:12.096Z,23.58
2023-04-19T23:26:44.243Z,25.65
2023-04-19T23:29:16.810Z,23.10
2023-04-19T23:31:49.279Z,26.93
2023-04-19T23:34:21.586Z,27.48
2023-04-19T23:36:54.170Z,21.17
2023-04-19T23:39:26.356Z,24.48
2023-04-19T23:41:58.740Z,22.92
2023-04-19T23:44:31.153Z,29.83
2023-04-19T23:47:04.280Z,31.35
2023-04-19T23:49:36.427Z,32.08
2023-04-19T23:52:08.636Z,30.38
2023-04-19T23:54:40.928Z,31.83
2023-04-19T23:57:12.996Z,37.75
2023-04-19T23:59:45.471Z,32.80
